Time;durP1;ratioP1;P1;durP2;ratioP2;P2;SDS_P1;SDS_P2;PMS_P1;PMS_P2;Temp;Humidity;BMP_temperature;BMP_pressure;BME280_temperature;BME280_humidity;BME280_pressure;Samples;Min_cycle;Max_cycle;Signal;HPM_P1;HPM_P2
2024/03/11 00:02:00;;;;;;;7.53;5.50;;;9.30;99.90;9.20;98840.00;;;;4881071;28;111016;-64
2024/03/11 00:04:27;;;;;;;12.90;6.23;;;9.30;99.90;9.20;98836.00;;;;4881380;28;88634;-64
2024/03/11 00:06:52;;;;;;;9.33;6.73;;;9.40;99.90;9.20;98841.00;;;;4881901;28;86888;-65
2024/03/11 00:09:28;;;;;;;5.77;5.07;;;9.30;99.90;9.10;98829.00;;;;4881074;28;116727;-67
2024/03/11 00:11:55;;;;;;;10.00;5.73;;;9.20;99.90;9.10;98831.00;;;;4882855;28;87709;-64
2024/03/11 00:14:26;;;;;;;7.80;4.87;;;9.20;99.90;9.10;98833.00;;;;4877970;28;88783;-63
2024/03/11 00:16:55;;;;;;;7.53;6.03;;;9.20;99.90;9.10;98827.00;;;;4879133;28;87844;-66
2024/03/11 00:19:22;;;;;;;13.07;5.70;;;9.20;99.90;9.10;98827.00;;;;4875866;28;87988;-64
2024/03/11 00:21:53;;;;;;;9.70;5.80;;;9.10;99.90;9.00;98815.00;;;;4878268;28;101611;-64
2024/03/11 00:24:19;;;;;;;11.23;5.80;;;9.20;99.90;9.00;98812.00;;;;4878112;28;88270;-63
2024/03/11 00:26:45;;;;;;;7.10;5.03;;;9.10;99.90;9.00;98811.00;;;;4880587;28;88372;-65
2024/03/11 00:29:12;;;;;;;7.60;5.63;;;9.10;99.90;9.00;98820.00;;;;4882536;28;88229;-65
2024/03/11 00:31:37;;;;;;;8.70;5.63;;;9.00;99.90;9.00;98816.00;;;;4881659;28;93714;-64
2024/03/11 00:34:03;;;;;;;9.23;5.83;;;9.10;99.90;9.00;98816.00;;;;4878498;28;108551;-64
2024/03/11 00:36:31;;;;;;;11.80;6.53;;;9.10;99.90;9.00;98821.00;;;;4878227;28;93051;-64
2024/03/11 00:38:57;;;;;;;7.40;5.40;;;9.00;99.90;9.00;98826.00;;;;4880476;28;90138;-64
2024/03/11 00:41:24;;;;;;;11.77;6.30;;;9.00;99.90;8.90;98815.00;;;;4877668;28;89593;-63
2024/03/11 00:43:50;;;;;;;10.83;5.00;;;9.00;99.90;8.90;98818.00;;;;4875956;28;102951;-65
2024/03/11 00:46:17;;;;;;;10.27;5.57;;;9.10;99.90;8.90;98825.00;;;;4878984;28;88013;-66
2024/03/11 00:48:45;;;;;;;10.23;5.77;;;9.10;99.90;8.90;98825.00;;;;4881760;28;109223;-65
2024/03/11 00:51:11;;;;;;;8.97;5.70;;;9.10;99.90;8.90;98827.00;;;;4882502;28;88067;-64
2024/03/11 00:53:37;;;;;;;9.00;5.27;;;9.00;99.90;8.90;98829.00;;;;4881513;28;109820;-65
2024/03/11 00:56:06;;;;;;;9.83;4.87;;;9.10;99.90;8.90;98820.00;;;;4881029;28;89546;-65
2024/03/11 00:58:34;;;;;;;7.10;4.73;;;9.00;99.90;9.00;98819.00;;;;4877357;28;88771;-64
2024/03/11 01:01:05;;;;;;;8.87;4.90;;;9.00;99.90;9.00;98824.00;;;;4881926;28;87861;-66
2024/03/11 01:03:31;;;;;;;9.27;5.87;;;9.10;99.90;9.00;98818.00;;;;4877838;28;88930;-65
2024/03/11 01:05:58;;;;;;;12.90;5.67;;;9.10;99.90;9.00;98824.00;;;;4876635;28;87820;-64
2024/03/11 01:08:25;;;;;;;6.70;5.63;;;9.00;99.90;9.00;98825.00;;;;4874386;28;89041;-65
2024/03/11 01:10:51;;;;;;;9.10;6.00;;;9.10;99.90;9.00;98815.00;;;;4879102;28;88065;-65
2024/03/11 01:13:18;;;;;;;9.07;5.87;;;9.10;99.90;9.10;98819.00;;;;4876180;28;94136;-65
2024/03/11 01:15:45;;;;;;;7.63;6.00;;;9.20;99.90;9.10;98813.00;;;;4879330;28;87778;-64
2024/03/11 01:18:11;;;;;;;8.27;4.90;;;9.10;99.90;9.10;98823.00;;;;4875438;28;88818;-65
2024/03/11 01:20:36;;;;;;;6.37;4.83;;;9.20;99.90;9.10;98817.00;;;;4880705;28;118254;-65
2024/03/11 01:23:05;;;;;;;8.43;4.80;;;9.20;99.90;9.10;98817.00;;;;4877268;28;109461;-64
2024/03/11 01:25:31;;;;;;;5.47;4.57;;;9.20;99.90;9.10;98807.00;;;;4879140;28;87793;-63
2024/03/11 01:27:57;;;;;;;9.70;5.83;;;9.20;99.90;9.10;98809.00;;;;4874797;28;89249;-64
2024/03/11 01:30:24;;;;;;;10.83;6.60;;;9.30;99.90;9.10;98805.00;;;;4875881;28;108126;-63
2024/03/11 01:32:50;;;;;;;7.90;5.57;;;9.20;99.90;9.10;98809.00;;;;4877589;28;87950;-63
2024/03/11 01:35:17;;;;;;;12.60;6.00;;;9.20;99.90;9.10;98808.00;;;;4878662;28;87774;-64
2024/03/11 01:37:43;;;;;;;5.23;4.67;;;9.20;99.90;9.10;98807.00;;;;4878218;28;88323;-65
2024/03/11 01:40:10;;;;;;;11.23;6.43;;;9.40;99.90;9.10;98802.00;;;;4883349;28;107696;-64
2024/03/11 01:42:42;;;;;;;8.53;4.63;;;9.20;99.90;9.10;98813.00;;;;4879675;28;95167;-65
2024/03/11 01:45:12;;;;;;;13.77;5.63;;;9.20;99.90;9.10;98807.00;;;;4878026;28;87178;-65
2024/03/11 01:47:38;;;;;;;6.60;5.17;;;9.20;99.90;9.10;98814.00;;;;4878353;28;88055;-65
2024/03/11 01:50:07;;;;;;;10.67;5.10;;;9.20;99.90;9.10;98807.00;;;;4877027;28;116050;-64
2024/03/11 01:53:03;;;;;;;8.87;4.47;;;9.20;99.90;9.00;98807.00;;;;4882182;28;88978;-64
2024/03/11 01:55:29;;;;;;;7.47;4.57;;;9.20;99.90;9.00;98816.00;;;;4878498;28;87788;-64
2024/03/11 01:57:58;;;;;;;8.97;5.67;;;9.20;99.90;9.00;98816.00;;;;4877689;28;110336;-65
2024/03/11 02:00:24;;;;;;;6.83;6.17;;;9.10;99.90;8.90;98818.00;;;;4882599;28;87664;-64
2024/03/11 02:02:53;;;;;;;5.60;4.53;;;9.10;99.90;8.90;98826.00;;;;4875713;28;101570;-64
2024/03/11 02:05:26;;;;;;;12.40;5.17;;;9.00;99.90;8.90;98821.00;;;;4877342;28;88036;-64
2024/03/11 02:08:01;;;;;;;7.07;5.27;;;9.30;99.90;8.80;98804.00;;;;4879863;28;87978;-64
2024/03/11 02:10:28;;;;;;;6.03;4.93;;;8.90;99.90;8.80;98794.00;;;;4879877;28;88758;-63
2024/03/11 02:12:56;;;;;;;8.17;5.00;;;8.90;99.90;8.80;98798.00;;;;4876787;28;87867;-65
2024/03/11 02:15:21;;;;;;;7.87;5.37;;;8.90;99.90;8.70;98793.00;;;;4875298;28;87728;-64
2024/03/11 02:17:47;;;;;;;8.80;6.00;;;8.90;99.90;8.70;98810.00;;;;4874414;28;89925;-65
2024/03/11 02:20:16;;;;;;;13.13;5.83;;;8.90;99.90;8.70;98822.00;;;;4875664;28;90011;-63
2024/03/11 02:22:54;;;;;;;8.93;6.00;;;8.80;99.90;8.60;98823.00;;;;4877392;28;88047;-64
2024/03/11 02:25:26;;;;;;;9.77;4.50;;;8.80;99.90;8.60;98822.00;;;;4878329;28;101217;-64
2024/03/11 02:27:55;;;;;;;8.23;5.80;;;8.70;99.90;8.60;98818.00;;;;4882781;28;88178;-63
2024/03/11 02:30:21;;;;;;;10.97;5.33;;;8.70;99.90;8.50;98822.00;;;;4880185;28;88081;-63
2024/03/11 02:32:47;;;;;;;9.67;5.67;;;8.70;99.90;8.50;98812.00;;;;4878915;28;87688;-65
2024/03/11 02:35:13;;;;;;;9.63;6.13;;;8.60;99.90;8.50;98822.00;;;;4882534;28;107996;-63
2024/03/11 02:37:39;;;;;;;9.57;6.00;;;8.60;99.90;8.40;98834.00;;;;4877157;28;88065;-63
2024/03/11 02:40:09;;;;;;;8.23;5.57;;;8.50;99.90;8.40;98839.00;;;;4875947;28;117492;-63
2024/03/11 02:42:36;;;;;;;9.90;6.00;;;8.30;99.90;8.40;98847.00;;;;4880637;28;88923;-64
2024/03/11 02:45:05;;;;;;;11.77;5.53;;;8.50;99.90;8.40;98860.00;;;;4882815;28;100493;-65
2024/03/11 02:47:32;;;;;;;7.33;5.30;;;8.50;99.90;8.40;98862.00;;;;4882460;28;89278;-63
2024/03/11 02:49:58;;;;;;;10.00;6.00;;;8.50;99.90;8.40;98857.00;;;;4880296;28;88503;-63
2024/03/11 02:52:23;;;;;;;7.43;4.50;;;8.50;99.90;8.40;98858.00;;;;4883572;28;109558;-66
2024/03/11 02:54:51;;;;;;;6.33;4.57;;;8.50;99.90;8.50;98861.00;;;;4880722;28;107194;-63
2024/03/11 02:57:19;;;;;;;7.23;5.43;;;8.60;99.90;8.50;98846.00;;;;4884917;28;92777;-65
2024/03/11 02:59:46;;;;;;;8.20;5.37;;;8.60;99.90;8.50;98858.00;;;;4886587;28;87826;-64
2024/03/11 03:02:12;;;;;;;10.33;5.33;;;8.70;99.90;8.60;98852.00;;;;4880004;28;88823;-63
2024/03/11 03:04:39;;;;;;;7.13;4.43;;;8.60;99.90;8.60;98851.00;;;;4879631;28;87884;-63
2024/03/11 03:07:12;;;;;;;11.83;5.87;;;8.70;99.90;8.60;98851.00;;;;4883189;28;90033;-63
2024/03/11 03:09:38;;;;;;;8.43;5.07;;;8.70;99.90;8.70;98844.00;;;;4887689;28;89897;-64
2024/03/11 03:12:05;;;;;;;6.13;5.30;;;8.70;99.90;8.60;98855.00;;;;4882016;28;100979;-63
2024/03/11 03:14:31;;;;;;;9.30;5.10;;;8.70;99.90;8.60;98877.00;;;;4878704;28;98236;-64
2024/03/11 03:16:57;;;;;;;8.23;5.93;;;8.80;99.90;8.60;98878.00;;;;4880789;28;117778;-64
2024/03/11 03:19:23;;;;;;;7.43;5.37;;;8.70;99.90;8.60;98863.00;;;;4880678;28;88084;-64
2024/03/11 03:21:49;;;;;;;8.87;5.30;;;8.70;99.90;8.60;98867.00;;;;4882318;28;87790;-64
2024/03/11 03:24:16;;;;;;;7.17;5.23;;;8.70;99.90;8.50;98878.00;;;;4879365;28;98084;-64
2024/03/11 03:26:42;;;;;;;11.77;6.07;;;8.70;99.90;8.50;98866.00;;;;4878587;28;88244;-64
2024/03/11 03:29:08;;;;;;;10.73;6.43;;;8.60;99.90;8.40;98873.00;;;;4880796;28;108460;-63
2024/03/11 03:31:33;;;;;;;8.73;6.10;;;8.50;99.90;8.40;98875.00;;;;4877091;28;89100;-64
2024/03/11 03:33:59;;;;;;;6.87;5.13;;;8.50;99.90;8.40;98875.00;;;;4880179;28;108842;-63
2024/03/11 03:36:25;;;;;;;10.37;5.83;;;8.50;99.90;8.30;98892.00;;;;4877825;28;118833;-64
2024/03/11 03:38:51;;;;;;;8.33;5.63;;;8.50;99.90;8.30;98891.00;;;;4881645;28;117209;-64
2024/03/11 03:41:17;;;;;;;9.53;5.87;;;8.40;99.90;8.30;98894.00;;;;4886594;28;88038;-64
2024/03/11 03:43:43;;;;;;;7.20;5.20;;;8.40;99.90;8.30;98885.00;;;;4884803;28;89520;-64
2024/03/11 03:46:09;;;;;;;7.17;5.77;;;8.40;99.90;8.30;98897.00;;;;4879664;28;87827;-64
2024/03/11 03:48:35;;;;;;;8.77;4.90;;;8.40;99.90;8.30;98892.00;;;;4877172;28;104480;-64
2024/03/11 03:51:04;;;;;;;10.57;5.63;;;8.40;99.90;8.40;98907.00;;;;4880299;28;88798;-64
2024/03/11 03:53:30;;;;;;;11.10;5.07;;;8.50;99.90;8.40;98905.00;;;;4883037;28;88051;-64
2024/03/11 03:55:55;;;;;;;9.60;5.83;;;8.50;99.90;8.50;98901.00;;;;4880942;28;98396;-63
2024/03/11 03:58:21;;;;;;;11.53;5.83;;;8.50;99.90;8.50;98895.00;;;;4877826;28;118807;-63
2024/03/11 04:00:47;;;;;;;7.23;4.83;;;8.50;99.90;8.50;98905.00;;;;4878987;28;113195;-63
2024/03/11 04:03:12;;;;;;;11.23;5.60;;;8.70;99.90;8.50;98918.00;;;;4880658;28;108160;-63
2024/03/11 04:05:38;;;;;;;11.00;5.63;;;8.70;99.90;8.60;98922.00;;;;4880361;28;118077;-64
2024/03/11 04:08:04;;;;;;;11.30;6.30;;;8.80;99.90;8.60;98920.00;;;;4879121;28;117408;-63
2024/03/11 04:10:30;;;;;;;11.43;5.27;;;8.70;99.90;8.60;98925.00;;;;4883130;28;102427;-64
2024/03/11 04:12:57;;;;;;;8.23;5.63;;;8.70;99.90;8.60;98929.00;;;;4895114;28;109810;-64
2024/03/11 04:15:23;;;;;;;9.73;5.37;;;8.70;99.90;8.60;98931.00;;;;4877951;28;88711;-64
2024/03/11 04:17:51;;;;;;;8.20;5.50;;;8.70;99.90;8.60;98952.00;;;;4874588;28;88931;-63
2024/03/11 04:20:22;;;;;;;9.00;5.10;;;8.70;99.90;8.60;98946.00;;;;4883369;28;89386;-64
2024/03/11 04:22:49;;;;;;;11.33;5.50;;;8.70;99.90;8.60;98954.00;;;;4878593;28;87729;-64
2024/03/11 04:25:18;;;;;;;9.13;5.10;;;8.70;99.90;8.60;98958.00;;;;4878894;28;112502;-64
2024/03/11 04:27:46;;;;;;;8.63;5.27;;;8.70;99.90;8.60;98956.00;;;;4881610;28;88514;-64
2024/03/11 04:30:19;;;;;;;12.40;5.33;;;8.80;99.90;8.60;98976.00;;;;4878401;28;87820;-65
2024/03/11 04:32:51;;;;;;;7.93;5.70;;;8.70;99.90;8.60;98977.00;;;;4879162;28;88181;-64
2024/03/11 04:35:34;;;;;;;14.57;9.60;;;8.70;99.90;8.60;98991.00;;;;4880912;28;87895;-64
2024/03/11 04:38:03;;;;;;;7.77;5.30;;;8.70;99.90;8.60;98977.00;;;;4881704;28;87952;-63
2024/03/11 04:40:32;;;;;;;10.97;6.17;;;8.80;99.90;8.60;98989.00;;;;4880963;28;89020;-64
2024/03/11 04:42:58;;;;;;;6.87;4.40;;;8.70;99.90;8.60;98982.00;;;;4879872;28;87943;-63
2024/03/11 04:45:26;;;;;;;10.03;6.33;;;8.80;99.90;8.70;98997.00;;;;4879672;28;89331;-64
2024/03/11 04:47:59;;;;;;;8.43;6.00;;;8.80;99.90;8.70;98997.00;;;;4880010;28;89552;-64
2024/03/11 04:50:27;;;;;;;8.60;6.23;;;8.70;99.90;8.70;98998.00;;;;4881083;28;87882;-64
2024/03/11 04:53:07;;;;;;;7.93;5.30;;;8.80;99.90;8.80;99012.00;;;;4881485;28;87830;-65
2024/03/11 04:55:34;;;;;;;8.23;5.97;;;8.90;99.90;8.80;99013.00;;;;4883243;28;116753;-65
2024/03/11 04:58:01;;;;;;;11.37;7.43;;;8.80;99.90;8.90;99024.00;;;;4878297;28;112327;-64
2024/03/11 05:00:30;;;;;;;8.93;6.37;;;8.90;99.90;8.90;99026.00;;;;4877448;28;87932;-64
2024/03/11 05:02:57;;;;;;;11.67;6.30;;;9.00;99.90;9.00;99025.00;;;;4877427;28;86909;-64
2024/03/11 05:05:25;;;;;;;7.73;5.90;;;9.10;99.90;9.00;99025.00;;;;4881166;28;88137;-65
2024/03/11 05:07:51;;;;;;;9.53;6.53;;;9.10;99.90;9.10;99042.00;;;;4878125;28;89139;-64
2024/03/11 05:10:17;;;;;;;11.27;7.23;;;9.20;99.90;9.20;99036.00;;;;4882397;28;101912;-65
2024/03/11 05:12:43;;;;;;;11.03;6.93;;;9.20;99.90;9.30;99030.00;;;;4874572;28;88380;-64
2024/03/11 05:15:09;;;;;;;13.20;7.80;;;9.30;99.90;9.30;99049.00;;;;4877159;28;89522;-65
2024/03/11 05:17:38;;;;;;;10.53;8.30;;;9.40;99.90;9.50;99051.00;;;;4878765;28;104448;-64
2024/03/11 05:20:06;;;;;;;11.90;8.60;;;9.50;99.90;9.50;99048.00;;;;4882594;28;88045;-64
2024/03/11 05:22:32;;;;;;;10.30;7.27;;;9.50;99.90;9.60;99060.00;;;;4879422;28;87786;-65
2024/03/11 05:24:59;;;;;;;14.50;9.10;;;9.60;99.90;9.70;99059.00;;;;4877782;28;89373;-65
2024/03/11 05:27:25;;;;;;;10.30;7.63;;;9.70;99.90;9.70;99069.00;;;;4880205;28;88195;-64
2024/03/11 05:29:50;;;;;;;10.87;7.93;;;9.70;99.90;9.70;99061.00;;;;4877607;28;87641;-65
2024/03/11 05:32:17;;;;;;;13.43;8.20;;;9.70;99.90;9.70;99063.00;;;;4879422;28;108345;-64
2024/03/11 05:34:43;;;;;;;12.20;8.77;;;9.80;99.90;9.80;99070.00;;;;4879584;28;89053;-64
2024/03/11 05:37:09;;;;;;;12.17;7.93;;;9.80;99.90;9.80;99084.00;;;;4877375;28;111800;-64
2024/03/11 05:39:34;;;;;;;11.23;8.10;;;9.80;99.90;9.80;99087.00;;;;4871583;28;110671;-63
2024/03/11 05:42:05;;;;;;;13.63;7.80;;;9.90;99.90;9.80;99081.00;;;;4877852;28;106368;-63
2024/03/11 05:44:32;;;;;;;11.17;7.67;;;9.90;99.90;9.80;99090.00;;;;4876371;28;88843;-64
2024/03/11 05:46:58;;;;;;;12.80;8.27;;;9.80;99.90;9.80;99089.00;;;;4875524;28;88793;-65
2024/03/11 05:49:26;;;;;;;12.30;7.87;;;9.90;99.90;9.80;99085.00;;;;4874646;28;110678;-64
2024/03/11 05:51:52;;;;;;;10.93;7.80;;;9.90;99.90;9.90;99099.00;;;;4876118;28;87374;-64
2024/03/11 05:54:18;;;;;;;12.13;7.10;;;9.90;99.90;9.90;99106.00;;;;4874298;28;87760;-63
2024/03/11 05:56:59;;;;;;;13.20;7.77;;;9.90;99.90;9.90;99105.00;;;;4876475;28;88113;-64
2024/03/11 05:59:25;;;;;;;10.70;7.20;;;9.90;99.90;9.90;99102.00;;;;4875720;28;88987;-64
2024/03/11 06:01:55;;;;;;;11.97;8.13;;;9.90;99.90;9.90;99104.00;;;;4880933;28;88940;-65
2024/03/11 06:04:20;;;;;;;11.57;8.23;;;10.00;99.90;9.90;99107.00;;;;4893071;28;108042;-64
2024/03/11 06:06:48;;;;;;;10.57;7.93;;;10.00;99.90;9.90;99106.00;;;;4880767;28;89182;-64
2024/03/11 06:09:16;;;;;;;14.47;8.67;;;10.00;99.90;9.90;99101.00;;;;4883789;28;102218;-64
2024/03/11 06:11:43;;;;;;;8.17;6.80;;;10.00;99.90;9.90;99105.00;;;;4877182;28;88519;-64
2024/03/11 06:14:14;;;;;;;9.93;6.63;;;10.60;99.90;9.90;99109.00;;;;4878953;28;88162;-63
2024/03/11 06:16:42;;;;;;;11.30;6.10;;;10.00;99.90;10.00;99112.00;;;;4879006;28;88671;-64
2024/03/11 06:19:10;;;;;;;9.87;6.50;;;10.00;99.90;10.00;99113.00;;;;4881439;28;91913;-64
2024/03/11 06:21:35;;;;;;;10.23;6.93;;;10.20;99.90;10.00;99114.00;;;;4880615;28;87704;-64
2024/03/11 06:24:01;;;;;;;8.77;6.63;;;10.00;99.90;10.00;99122.00;;;;4875450;28;116873;-64
2024/03/11 06:26:28;;;;;;;11.77;6.93;;;10.10;99.90;10.00;99122.00;;;;4874897;28;89963;-64
2024/03/11 06:28:55;;;;;;;9.67;6.80;;;10.10;99.90;10.00;99129.00;;;;4875706;28;87950;-64
2024/03/11 06:31:24;;;;;;;11.07;6.60;;;10.00;99.90;10.00;99131.00;;;;4875611;28;87996;-64
2024/03/11 06:33:50;;;;;;;8.07;5.57;;;10.10;99.90;10.00;99137.00;;;;4876771;28;88765;-65
2024/03/11 06:36:17;;;;;;;9.27;5.93;;;10.00;99.90;10.00;99137.00;;;;4877988;28;87770;-65
2024/03/11 06:38:44;;;;;;;11.33;6.67;;;10.10;99.90;10.00;99138.00;;;;4878317;28;87649;-65
2024/03/11 06:41:11;;;;;;;6.47;5.80;;;10.10;99.90;10.10;99150.00;;;;4881458;28;87417;-65
2024/03/11 06:43:38;;;;;;;11.00;7.07;;;10.10;99.90;10.10;99149.00;;;;4877970;28;87969;-65
2024/03/11 06:46:04;;;;;;;11.03;7.53;;;10.10;99.90;10.10;99151.00;;;;4879248;28;88480;-64
2024/03/11 06:48:29;;;;;;;10.80;6.90;;;10.10;99.90;10.10;99158.00;;;;4874413;28;101149;-65
2024/03/11 06:50:55;;;;;;;9.73;6.00;;;10.20;99.90;10.10;99153.00;;;;4877671;28;106815;-65
2024/03/11 06:53:21;;;;;;;13.50;6.50;;;10.20;99.90;10.10;99164.00;;;;4876124;28;88722;-65
2024/03/11 06:55:47;;;;;;;10.50;7.13;;;10.20;99.90;10.10;99176.00;;;;4876148;28;116870;-65
2024/03/11 06:58:12;;;;;;;9.73;7.00;;;10.20;99.90;10.20;99176.00;;;;4876722;28;110966;-66
2024/03/11 07:00:39;;;;;;;8.40;5.77;;;10.20;99.90;10.20;99172.00;;;;4878413;28;107531;-65
2024/03/11 07:03:05;;;;;;;6.27;5.50;;;10.20;99.90;10.20;99180.00;;;;4877911;28;91131;-64
2024/03/11 07:05:31;;;;;;;9.60;5.70;;;10.20;99.90;10.20;99188.00;;;;4877219;28;117813;-65
2024/03/11 07:07:57;;;;;;;9.77;5.90;;;10.20;99.90;10.20;99198.00;;;;4876469;28;87669;-65
2024/03/11 07:10:23;;;;;;;11.27;6.10;;;10.30;99.90;10.30;99204.00;;;;4880248;28;87794;-65
2024/03/11 07:12:49;;;;;;;11.77;6.50;;;10.30;99.90;10.30;99207.00;;;;4882374;28;89252;-65
2024/03/11 07:15:16;;;;;;;7.73;5.37;;;10.40;99.90;10.30;99209.00;;;;4881976;28;118339;-64
2024/03/11 07:17:42;;;;;;;7.57;5.50;;;10.30;99.90;10.30;99214.00;;;;4886851;28;87840;-65
2024/03/11 07:20:13;;;;;;;5.97;4.93;;;10.40;99.90;10.40;99215.00;;;;4880054;28;88022;-64
2024/03/11 07:22:39;;;;;;;8.33;5.63;;;10.40;99.90;10.40;99224.00;;;;4882122;28;88728;-64
2024/03/11 07:25:15;;;;;;;9.40;6.13;;;10.00;99.90;10.50;99234.00;;;;4881116;28;88073;-64
2024/03/11 07:27:42;;;;;;;10.67;5.47;;;10.50;99.90;10.50;99230.00;;;;4880342;28;90400;-65
2024/03/11 07:30:11;;;;;;;6.90;4.87;;;10.50;99.90;10.50;99240.00;;;;4881318;28;87149;-64
2024/03/11 07:32:37;;;;;;;8.17;5.50;;;10.60;99.90;10.60;99242.00;;;;4881600;28;112398;-66
2024/03/11 07:35:03;;;;;;;10.23;5.87;;;10.50;99.90;10.60;99249.00;;;;4881044;28;115538;-66
2024/03/11 07:37:29;;;;;;;8.63;5.03;;;10.60;99.90;10.70;99247.00;;;;4878777;28;88830;-64
2024/03/11 07:39:56;;;;;;;7.10;5.67;;;10.70;99.90;10.70;99254.00;;;;4883342;28;87794;-65
2024/03/11 07:42:22;;;;;;;7.53;5.33;;;10.70;99.90;10.70;99248.00;;;;4878825;28;87639;-65
2024/03/11 07:44:49;;;;;;;8.23;5.17;;;10.70;99.90;10.80;99243.00;;;;4877593;28;117195;-64
2024/03/11 07:47:15;;;;;;;6.97;4.60;;;10.80;99.90;10.80;99262.00;;;;4879697;28;88040;-64
2024/03/11 07:49:41;;;;;;;6.60;4.80;;;10.90;99.90;10.90;99265.00;;;;4883293;28;87816;-64
2024/03/11 07:52:07;;;;;;;8.03;5.43;;;10.90;99.90;11.00;99278.00;;;;4879527;28;108344;-64
2024/03/11 07:54:33;;;;;;;7.93;4.73;;;11.00;99.90;11.20;99278.00;;;;4883395;28;88769;-64
2024/03/11 07:56:58;;;;;;;6.50;5.07;;;11.20;99.90;11.40;99276.00;;;;4877152;28;88676;-64
2024/03/11 07:59:24;;;;;;;5.50;3.93;;;11.30;99.90;11.80;99278.00;;;;4879125;28;108718;-64
2024/03/11 08:01:50;;;;;;;9.27;4.27;;;11.60;99.90;12.20;99284.00;;;;4884916;28;118594;-64
2024/03/11 08:04:16;;;;;;;4.53;3.93;;;12.00;99.90;12.60;99290.00;;;;4879702;28;88903;-64
2024/03/11 08:06:42;;;;;;;5.93;4.17;;;12.40;99.90;12.90;99288.00;;;;4882958;28;98910;-64
2024/03/11 08:09:09;;;;;;;4.80;3.73;;;12.80;99.90;13.30;99290.00;;;;4877429;28;107680;-64
2024/03/11 08:11:35;;;;;;;5.77;4.23;;;13.10;99.90;13.50;99298.00;;;;4881628;28;88697;-65
2024/03/11 08:14:05;;;;;;;5.50;3.63;;;13.40;99.90;13.60;99315.00;;;;4877789;28;87963;-63
2024/03/11 08:16:30;;;;;;;5.40;3.83;;;13.60;99.90;13.50;99311.00;;;;4889373;28;87962;-64
2024/03/11 08:18:57;;;;;;;6.13;3.70;;;13.60;99.90;13.40;99295.00;;;;4881597;28;109314;-63
2024/03/11 08:21:23;;;;;;;5.53;3.70;;;13.50;99.90;13.40;99311.00;;;;4880282;28;89064;-63
2024/03/11 08:23:51;;;;;;;3.77;2.77;;;13.50;99.90;13.40;99310.00;;;;4884406;28;116117;-65
2024/03/11 08:26:17;;;;;;;7.03;3.97;;;13.50;99.90;13.40;99300.00;;;;4881678;28;97605;-63
2024/03/11 08:28:43;;;;;;;3.83;3.00;;;13.40;99.90;13.30;99304.00;;;;4882871;28;87914;-63
2024/03/11 08:31:09;;;;;;;4.05;3.47;;;13.40;99.90;13.40;99318.00;;;;4880258;28;88109;-64
2024/03/11 08:33:38;;;;;;;5.20;3.43;;;13.80;99.90;13.40;99312.00;;;;4879740;28;117710;-63
2024/03/11 08:36:05;;;;;;;5.35;3.28;;;13.50;99.60;13.40;99324.00;;;;4879944;28;110178;-65
2024/03/11 08:38:32;;;;;;;5.87;3.03;;;13.50;99.40;13.40;99331.00;;;;4880229;28;87955;-64
2024/03/11 08:40:59;;;;;;;6.80;3.50;;;13.50;99.30;13.50;99336.00;;;;4883944;28;87900;-63
2024/03/11 08:43:26;;;;;;;4.77;3.33;;;13.50;98.40;13.40;99339.00;;;;4881019;28;108002;-63
2024/03/11 08:45:52;;;;;;;3.87;3.00;;;13.50;98.20;13.40;99339.00;;;;4884198;28;88392;-64
2024/03/11 08:48:18;;;;;;;5.90;3.50;;;13.40;97.80;13.30;99332.00;;;;4884793;28;87743;-63
2024/03/11 08:50:43;;;;;;;5.27;2.93;;;13.40;97.50;13.30;99342.00;;;;4876721;28;117841;-65
2024/03/11 08:53:10;;;;;;;6.13;3.57;;;13.40;97.00;13.30;99343.00;;;;4880426;28;116617;-65
2024/03/11 08:55:36;;;;;;;4.77;3.20;;;13.30;97.60;13.40;99357.00;;;;4887591;28;87795;-64
2024/03/11 08:58:05;;;;;;;4.63;2.70;;;13.30;97.40;13.40;99354.00;;;;4881131;28;87955;-64
2024/03/11 09:00:36;;;;;;;4.10;2.60;;;13.70;96.90;13.40;99357.00;;;;4881222;28;88442;-65
2024/03/11 09:03:05;;;;;;;5.53;2.60;;;13.40;96.70;13.60;99362.00;;;;4880241;28;88481;-65
2024/03/11 09:05:32;;;;;;;2.47;1.70;;;13.50;97.20;13.70;99360.00;;;;4880847;28;110297;-64
2024/03/11 09:08:03;;;;;;;3.17;2.05;;;13.70;96.50;13.80;99387.00;;;;4877835;28;87258;-64
2024/03/11 09:10:30;;;;;;;3.57;1.93;;;13.80;95.90;13.80;99385.00;;;;4877011;28;88287;-64
2024/03/11 09:12:58;;;;;;;2.67;1.93;;;13.80;95.80;14.00;99378.00;;;;4881946;28;88808;-64
2024/03/11 09:15:24;;;;;;;3.17;1.90;;;13.90;95.90;14.00;99391.00;;;;4879193;28;88840;-65
2024/03/11 09:17:51;;;;;;;3.63;2.15;;;14.00;96.20;14.10;99381.00;;;;4880561;28;87738;-65
2024/03/11 09:20:20;;;;;;;3.30;2.23;;;14.10;94.80;14.10;99392.00;;;;4877797;28;88380;-64
2024/03/11 09:22:53;;;;;;;4.57;1.83;;;14.00;93.90;14.10;99394.00;;;;4878673;28;88677;-64
2024/03/11 09:25:24;;;;;;;2.47;1.70;;;14.10;93.90;14.00;99396.00;;;;4873949;28;88023;-65
2024/03/11 09:28:00;;;;;;;1.83;1.45;;;14.00;93.90;14.10;99397.00;;;;4879040;28;88012;-62
2024/03/11 09:30:28;;;;;;;3.50;1.48;;;14.00;93.80;14.10;99400.00;;;;4878967;28;88637;-63
2024/03/11 09:32:55;;;;;;;1.73;1.60;;;14.10;93.80;14.10;99414.00;;;;4877804;28;87270;-64
2024/03/11 09:35:23;;;;;;;1.98;1.55;;;14.10;93.60;14.30;99417.00;;;;4877405;28;87850;-64
2024/03/11 09:37:53;;;;;;;1.95;1.58;;;14.30;93.80;14.60;99421.00;;;;4881083;28;102490;-64
2024/03/11 09:40:28;;;;;;;1.83;1.20;;;14.50;93.60;15.00;99424.00;;;;4874339;28;88898;-64
2024/03/11 09:42:55;;;;;;;2.33;1.63;;;14.80;93.80;15.40;99422.00;;;;4877350;28;87901;-64
2024/03/11 09:45:24;;;;;;;1.63;1.30;;;15.20;93.10;15.60;99432.00;;;;4878844;28;87788;-64
2024/03/11 09:47:52;;;;;;;2.38;1.70;;;15.50;92.30;15.80;99421.00;;;;4879829;28;87993;-64
2024/03/11 09:50:26;;;;;;;2.22;1.55;;;15.70;92.10;16.00;99431.00;;;;4879643;28;88630;-64
2024/03/11 09:53:18;;;;;;;2.05;1.42;;;15.90;92.00;16.30;99435.00;;;;4877265;28;88093;-64
2024/03/11 09:55:44;;;;;;;1.60;1.20;;;16.20;90.80;16.40;99445.00;;;;4881975;28;88013;-64
2024/03/11 09:58:15;;;;;;;1.73;1.13;;;16.30;88.70;16.50;99441.00;;;;4879905;28;87162;-64
2024/03/11 10:00:49;;;;;;;1.80;1.48;;;16.50;88.30;16.60;99439.00;;;;4880696;28;88237;-64
2024/03/11 10:03:16;;;;;;;1.95;1.17;;;16.50;87.10;16.80;99434.00;;;;4876995;28;88532;-64
2024/03/11 10:05:44;;;;;;;2.15;1.30;;;16.80;87.20;17.00;99438.00;;;;4879074;28;99823;-65
2024/03/11 10:08:11;;;;;;;1.02;0.77;;;16.90;85.90;17.10;99446.00;;;;4881526;28;87690;-64
2024/03/11 10:10:39;;;;;;;1.30;1.20;;;17.00;85.60;17.00;99448.00;;;;4878559;28;88673;-64
2024/03/11 10:13:05;;;;;;;1.50;1.00;;;17.10;83.70;16.80;99450.00;;;;4879494;28;88605;-64
2024/03/11 10:15:32;;;;;;;1.38;0.70;;;16.90;83.80;16.60;99455.00;;;;4879920;28;88089;-64
2024/03/11 10:18:31;;;;;;;0.60;0.60;;;16.70;84.10;16.60;99449.00;;;;4885458;28;88023;-64
2024/03/11 10:20:59;;;;;;;1.88;0.93;;;16.60;84.90;16.70;99447.00;;;;4880210;28;88547;-64
2024/03/11 10:23:26;;;;;;;0.68;0.50;;;16.60;84.50;16.60;99452.00;;;;4876124;28;115037;-65
2024/03/11 10:26:17;;;;;;;1.15;0.90;;;16.50;81.50;16.40;99448.00;;;;4878144;28;88018;-64
2024/03/11 10:28:45;;;;;;;0.77;0.77;;;16.40;82.20;16.60;99452.00;;;;4879449;28;87915;-64
2024/03/11 10:31:27;;;;;;;0.43;0.43;;;16.40;82.60;16.80;99446.00;;;;4879041;28;90004;-64
2024/03/11 10:34:20;;;;;;;0.93;0.80;;;16.70;82.00;16.80;99441.00;;;;4878514;28;88859;-63
2024/03/11 10:36:56;;;;;;;0.45;0.40;;;16.60;81.10;16.70;99456.00;;;;4880485;28;87969;-64
2024/03/11 10:41:49;;;;;;;0.68;0.68;;;16.70;79.90;16.90;99454.00;;;;4874229;28;113389;-64
2024/03/11 10:44:18;;;;;;;1.08;0.50;;;16.80;79.30;16.90;99467.00;;;;4878822;28;88600;-64
2024/03/11 10:46:44;;;;;;;0.55;0.50;;;16.80;78.60;16.80;99479.00;;;;4886407;28;87813;-64
2024/03/11 10:49:12;;;;;;;0.65;0.35;;;16.80;78.80;16.70;99462.00;;;;4880304;28;109370;-65
2024/03/11 10:51:45;;;;;;;0.70;0.50;;;16.70;78.50;16.50;99462.00;;;;4883157;28;88422;-64
2024/03/11 10:54:20;;;;;;;0.30;0.30;;;16.50;79.50;16.50;99466.00;;;;4883318;28;88221;-64
2024/03/11 10:56:46;;;;;;;0.47;0.30;;;16.40;80.10;16.60;99468.00;;;;4879571;28;89019;-64
2024/03/11 10:59:15;;;;;;;0.50;0.35;;;16.50;79.70;16.40;99472.00;;;;4881098;28;107878;-64
2024/03/11 11:01:48;;;;;;;0.40;0.40;;;16.40;78.80;16.30;99479.00;;;;4883661;28;87782;-65
2024/03/11 11:04:14;;;;;;;0.40;0.38;;;16.30;78.80;16.40;99471.00;;;;4868995;28;106065;-64